ADDS METAR Data INFO
IDs: Format: Raw Decoded Include TAF

Data at: 0315 UTC 20 Jul 2018

KECG 200254Z 09005KT 10SM 24/22 A3010 RMK AO2 SLP191 T02390222 51013 $
KECG 200154Z 08004KT 10SM CLR 24/22 A3009 RMK AO2 SLP189 T02390222
KECG 200054Z 09007KT 10SM CLR 24/22 A3007 RMK AO2 SLP183 T02440222
KECG 192354Z 09007KT 10SM CLR 26/21 A3006 RMK AO2 SLP179 T02560211 10300 20250 53002
KECG 192254Z 09008KT 10SM CLR 27/19 A3005 RMK AO2 SLP174 T02720189
KECG 192154Z 10007KT 10SM CLR 28/18 A3005 RMK AO2 SLP174 T02830183
KECG 192054Z 09009KT 10SM SCT075 28/19 A3005 RMK AO2 SLP176 T02830189 56007
KECG 191954Z 09008KT 10SM CLR 30/19 A3006 RMK AO2 SLP179 T03000189
KECG 191854Z 10008KT 10SM FEW080 29/19 A3006 RMK AO2 SLP180 T02940194
KECG 191754Z 10009KT 10SM BKN080 29/18 A3007 RMK AO2 SLP183 T02890178 10300 20239 50002
KECG 191654Z 08009KT 10SM CLR 29/19 A3007 RMK AO2 SLP184 T02940189
KECG 191554Z 07010KT 10SM FEW050 BKN070 30/19 A3007 RMK AO2 SLP182 T03000189
KECG 191454Z 03007KT 10SM CLR 29/20 A3007 RMK AO2 SLP181 T02890200 51012
KECG 191354Z 04005KT 10SM CLR 28/21 A3007 RMK AO2 SLP180 T02780206
KECG 191254Z 36004KT 10SM CLR 26/20 A3005 RMK AO2 SLP176 T02560200
KECG 191154Z 01004KT 10SM CLR 24/19 A3003 RMK AO2 SLP168 T02390194 10239 20194 53012
KECG 191054Z 00000KT 10SM CLR 21/19 A3002 RMK AO2 SLP164 T02060189
KECG 190954Z AUTO 31005KT 10SM CLR 20/18 A3000 RMK AO2 SLP160 T02000183
KECG 190854Z AUTO 31006KT 10SM CLR 20/18 A2999 RMK AO2 SLP156 T02000183 55001
KECG 190754Z 00000KT 10SM CLR 20/19 A2999 RMK AO2 SLP155 T02000194
KECG 190654Z 34004KT 10SM CLR 21/20 A2999 RMK AO2 SLP155 T02060200
KECG 190638Z 31004KT 6SM BR CLR 20/20 A2999 RMK AO2 T02000200
KECG 190625Z 30003KT 2 1/2SM BR CLR 21/21 A3000 RMK AO2 VIS 1 1/2V4 T02060206
KECG 190554Z 00000KT 10SM CLR 22/21 A3000 RMK AO2 SLP157 60000 T02170211 10261 20206 53005
KECG 190454Z 28003KT 10SM CLR 21/21 A2999 RMK AO2 SLP154 T02110206 403110211
KECG 190354Z 00000KT 10SM CLR 22/21 A2998 RMK AO2 SLP152 T02170211
KECG 190254Z 00000KT 10SM SCT070 22/21 A2998 RMK AO2 SLP152 60000 T02220211 53015
KECG 190154Z 12003KT 10SM CLR 24/21 A2996 RMK AO2 RAB34E43 SLP145 P0000 T02440211
KECG 190054Z 09004KT 10SM FEW049 BKN060 26/21 A2994 RMK AO2 SLP139 T02560206
KECG 182354Z 10004KT 10SM SCT060 26/20 A2994 RMK AO2 SLP137 T02610200 10311 20261 51010
KECG 182254Z AUTO 07008KT 10SM FEW050 28/21 A2993 RMK AO2 SLP134 T02780206
KECG 182154Z 05009KT 10SM CLR 29/21 A2992 RMK AO2 SLP130 T02890211
KECG 182054Z 36007KT 10SM CLR 30/21 A2991 RMK AO2 SLP126 T03000206 58005
KECG 181954Z 05009KT 10SM BKN040 BKN047 OVC080 29/23 A2992 RMK AO2 SLP132 T02890228
KECG 181854Z 04006KT 10SM SCT045 BKN055 BKN070 29/24 A2992 RMK AO2 SLP132 T02890239
KECG 181754Z 34008KT 10SM BKN070 31/21 A2992 RMK AO2 SLP131 T03110211 10311 20244 50000
KECG 181654Z 01007KT 10SM BKN060 30/23 A2992 RMK AO2 SLP132 T03000228
KECG 181554Z 35007KT 10SM FEW024 FEW036 SCT065 29/23 A2992 RMK AO2 SLP133 T02890233